createdAt,value
2022-12-08T00:00:59.813Z,8.4
2022-12-08T00:03:30.751Z,8.4
2022-12-08T00:06:01.306Z,8.4
2022-12-08T00:08:32.006Z,8.3
2022-12-08T00:11:02.260Z,8.2
2022-12-08T00:13:33.469Z,8.1
2022-12-08T00:16:04.947Z,8
2022-12-08T00:18:35.265Z,8
2022-12-08T00:21:06.223Z,8
2022-12-08T00:23:36.832Z,8
2022-12-08T00:26:07.741Z,8
2022-12-08T00:28:38.246Z,8
2022-12-08T00:31:09.259Z,8.1
2022-12-08T00:33:42.746Z,8.1
2022-12-08T00:36:13.925Z,8.2
2022-12-08T00:38:44.501Z,8.1
2022-12-08T00:41:15.777Z,7.9
2022-12-08T00:43:46.281Z,8.1
2022-12-08T00:46:16.724Z,8.1
2022-12-08T00:48:48.191Z,8.1
2022-12-08T00:51:19.190Z,8.1
2022-12-08T00:53:50.086Z,8
2022-12-08T00:56:21.340Z,8.1
2022-12-08T00:58:52.813Z,8.2
2022-12-08T01:01:23.653Z,8.2
2022-12-08T01:03:54.518Z,8.1
2022-12-08T01:06:25.462Z,8.1
2022-12-08T01:08:57.698Z,8.1
2022-12-08T01:11:28.087Z,8.1
2022-12-08T01:13:59.048Z,8.1
2022-12-08T01:16:29.583Z,8.1
2022-12-08T01:19:00.093Z,8.1
2022-12-08T01:21:31.683Z,8.1
2022-12-08T01:24:02.668Z,8
2022-12-08T01:26:33.846Z,8.1
2022-12-08T01:29:04.360Z,8.1
2022-12-08T01:31:34.643Z,8.1
2022-12-08T01:34:04.904Z,8.1
2022-12-08T01:36:35.624Z,8
2022-12-08T01:39:06.770Z,8.1
2022-12-08T01:41:37.572Z,8.1
2022-12-08T01:44:07.734Z,8.2
2022-12-08T01:46:38.134Z,8.2
2022-12-08T01:49:09.079Z,8.1
2022-12-08T01:51:39.778Z,8
2022-12-08T01:54:10.871Z,8
2022-12-08T01:56:42.345Z,8
2022-12-08T01:59:14.022Z,8
2022-12-08T02:01:46.162Z,8.1
2022-12-08T02:04:17.096Z,8.1
2022-12-08T02:06:48.443Z,8.1
2022-12-08T02:09:20.013Z,8.1
2022-12-08T02:11:51.446Z,8
2022-12-08T02:14:23.071Z,8.1
2022-12-08T02:16:54.007Z,8.1
2022-12-08T02:19:32.306Z,8.1
2022-12-08T02:21:55.853Z,7.9
2022-12-08T02:24:26.946Z,8
2022-12-08T02:26:57.662Z,8.1
2022-12-08T02:29:28.817Z,8.2
2022-12-08T02:31:59.401Z,8.2
2022-12-08T02:34:31.162Z,8.2
2022-12-08T02:37:02.026Z,8.3
2022-12-08T02:39:32.800Z,8.2
2022-12-08T02:42:03.388Z,8.3
2022-12-08T02:44:34.735Z,8.2
2022-12-08T02:47:05.897Z,8.2
2022-12-08T02:49:36.384Z,8.1
2022-12-08T02:52:07.418Z,8.1
2022-12-08T02:54:38.527Z,8.1
2022-12-08T02:57:09.464Z,8.1
2022-12-08T02:59:39.943Z,8.1
2022-12-08T03:02:10.369Z,8
2022-12-08T03:04:40.840Z,8
2022-12-08T03:07:11.336Z,8
2022-12-08T03:09:43.018Z,7.9
2022-12-08T03:12:14.961Z,7.9
2022-12-08T03:14:45.906Z,8
2022-12-08T03:17:17.100Z,8
2022-12-08T03:19:48.595Z,7.9
2022-12-08T03:22:19.423Z,7.8
2022-12-08T03:24:50.281Z,7.8
2022-12-08T03:27:21.610Z,7.9
2022-12-08T03:29:53.038Z,7.9
2022-12-08T03:32:24.131Z,7.9
2022-12-08T03:34:55.522Z,7.9
2022-12-08T03:37:26.524Z,7.9
2022-12-08T03:39:57.901Z,8
2022-12-08T03:42:28.664Z,8
2022-12-08T03:44:59.564Z,8.1
2022-12-08T03:47:30.385Z,8
2022-12-08T03:50:01.358Z,8
2022-12-08T03:52:32.336Z,8
2022-12-08T03:55:03.142Z,8.1
2022-12-08T03:57:33.358Z,8.1
2022-12-08T04:00:04.152Z,8.1
2022-12-08T04:02:35.521Z,8
2022-12-08T04:05:07.312Z,7.9
2022-12-08T04:07:39.344Z,7.8
2022-12-08T04:10:10.115Z,7.9
2022-12-08T04:12:41.661Z,8
2022-12-08T04:15:13.068Z,8.1
2022-12-08T04:17:45.046Z,8
2022-12-08T04:20:15.516Z,8
2022-12-08T04:22:47.260Z,8.1
2022-12-08T04:25:19.037Z,8.1
2022-12-08T04:27:50.160Z,8.1
2022-12-08T04:30:21.238Z,8
2022-12-08T04:32:52.005Z,8.1
2022-12-08T04:35:22.901Z,8.1
2022-12-08T04:37:54.098Z,8.1
2022-12-08T04:40:25.105Z,8.1
2022-12-08T04:42:56.323Z,8.1
2022-12-08T04:45:27.218Z,8.1
2022-12-08T04:47:58.668Z,8.1
2022-12-08T04:50:30.303Z,8.1
2022-12-08T04:53:00.817Z,8.1
2022-12-08T04:55:31.751Z,8.1
2022-12-08T04:58:02.868Z,8.2
2022-12-08T05:00:34.712Z,7.9
2022-12-08T05:03:06.054Z,7.9
2022-12-08T05:05:36.554Z,7.8
2022-12-08T05:08:07.984Z,7.8
2022-12-08T05:10:38.773Z,7.8
2022-12-08T05:13:09.984Z,7.9
2022-12-08T05:15:40.142Z,7.9
2022-12-08T05:18:11.227Z,7.9
2022-12-08T05:20:40.887Z,7.9
2022-12-08T05:23:12.042Z,7.9
2022-12-08T05:25:43.014Z,7.9
2022-12-08T05:28:40.013Z,7.9
2022-12-08T05:30:45.212Z,7.9
2022-12-08T05:33:16.698Z,8
2022-12-08T05:35:47.257Z,7.9
2022-12-08T05:38:18.348Z,7.9
2022-12-08T05:40:50.289Z,8
2022-12-08T05:43:21.450Z,8
2022-12-08T05:45:52.277Z,7.9
2022-12-08T05:48:23.328Z,7.9
2022-12-08T05:50:53.931Z,8
2022-12-08T05:53:24.748Z,7.9
2022-12-08T05:55:56.414Z,7.9
2022-12-08T05:58:27.302Z,7.8
2022-12-08T06:00:58.923Z,7.8
2022-12-08T06:03:29.277Z,7.9
2022-12-08T06:06:00.118Z,7.8
2022-12-08T06:08:31.133Z,7.8
2022-12-08T06:11:02.229Z,7.8
2022-12-08T06:13:32.853Z,7.8
2022-12-08T06:16:04.506Z,7.8
2022-12-08T06:18:35.298Z,7.8
2022-12-08T06:21:05.851Z,7.7
2022-12-08T06:23:40.561Z,7.7
2022-12-08T06:26:11.216Z,7.7
2022-12-08T06:28:42.830Z,7.7
2022-12-08T06:31:13.870Z,7.7
2022-12-08T06:33:45.189Z,7.7
2022-12-08T06:36:16.960Z,7.7
2022-12-08T06:38:47.896Z,7.7
2022-12-08T06:41:18.320Z,7.7
2022-12-08T06:43:48.944Z,7.8
2022-12-08T06:46:19.440Z,7.8
2022-12-08T06:48:50.313Z,7.8
2022-12-08T06:51:21.688Z,7.8
2022-12-08T06:53:52.582Z,7.8
2022-12-08T06:56:24.194Z,7.8
2022-12-08T06:58:54.941Z,7.9
2022-12-08T07:01:26.307Z,7.9
2022-12-08T07:03:56.342Z,7.8
2022-12-08T07:06:26.859Z,7.9
2022-12-08T07:08:57.286Z,7.9
2022-12-08T07:11:27.438Z,7.9
2022-12-08T07:13:58.610Z,7.8
2022-12-08T07:16:29.161Z,7.9
2022-12-08T07:19:00.013Z,7.9
2022-12-08T07:21:30.861Z,7.8
2022-12-08T07:24:01.180Z,7.9
2022-12-08T07:26:31.712Z,7.9
2022-12-08T07:29:01.867Z,7.9
2022-12-08T07:31:32.921Z,8
2022-12-08T07:34:03.863Z,8.1
2022-12-08T07:36:34.215Z,8.2
2022-12-08T07:39:04.940Z,8.2
2022-12-08T07:41:35.834Z,8.3
2022-12-08T07:44:06.827Z,8.4
2022-12-08T07:46:37.776Z,8.4
2022-12-08T07:49:08.202Z,8.3
2022-12-08T07:51:39.068Z,8.4
2022-12-08T07:54:09.378Z,8.5
2022-12-08T07:56:40.110Z,8.4
2022-12-08T07:59:11.038Z,8.4
2022-12-08T08:01:45.101Z,8.5
2022-12-08T08:04:11.527Z,8.6
2022-12-08T08:06:42.989Z,8.7
2022-12-08T08:09:13.923Z,8.7
2022-12-08T08:11:55.973Z,8.8
2022-12-08T08:14:16.019Z,8.9
2022-12-08T08:16:47.931Z,9
2022-12-08T08:19:19.111Z,8.9
2022-12-08T08:21:50.105Z,9.1
2022-12-08T08:24:21.298Z,9.1
2022-12-08T08:26:51.714Z,9.3
2022-12-08T08:29:21.939Z,9.4
2022-12-08T08:31:53.121Z,9.3
2022-12-08T08:34:24.319Z,9.5
2022-12-08T08:36:52.982Z,9.6
2022-12-08T08:39:24.122Z,9.6
2022-12-08T08:41:54.165Z,9.7
2022-12-08T08:44:24.743Z,9.8
2022-12-08T08:46:53.779Z,9.9
2022-12-08T08:49:23.889Z,9.8
2022-12-08T08:51:54.259Z,9.9
2022-12-08T08:54:24.768Z,10
2022-12-08T08:56:56.003Z,10.1
2022-12-08T08:59:26.295Z,10
2022-12-08T09:01:57.046Z,10
2022-12-08T09:04:27.836Z,10.1
2022-12-08T09:06:59.643Z,10.2
2022-12-08T09:09:30.192Z,10.2
2022-12-08T09:12:01.459Z,10.3
2022-12-08T09:14:32.042Z,10.4
2022-12-08T09:17:03.070Z,10.5
2022-12-08T09:19:34.224Z,10.5
2022-12-08T09:22:04.740Z,10.5
2022-12-08T09:24:35.085Z,10.5
2022-12-08T09:27:05.657Z,10.5
2022-12-08T09:29:36.644Z,10.5
2022-12-08T09:32:06.819Z,10.6
2022-12-08T09:34:37.081Z,10.7
2022-12-08T09:37:07.796Z,10.7
2022-12-08T09:39:38.459Z,10.7
2022-12-08T09:42:09.159Z,10.7
2022-12-08T09:44:39.631Z,10.7
2022-12-08T09:47:09.884Z,10.7
2022-12-08T09:49:39.364Z,10.8
2022-12-08T09:52:14.244Z,10.7
2022-12-08T09:54:44.802Z,10.8
2022-12-08T09:57:15.988Z,10.5
2022-12-08T09:59:46.237Z,10.7
2022-12-08T10:02:17.048Z,10.9
2022-12-08T10:04:47.730Z,10.8
2022-12-08T10:07:18.355Z,10.7
2022-12-08T10:09:47.389Z,10.7
2022-12-08T10:12:18.117Z,10.8
2022-12-08T10:14:48.743Z,10.6
2022-12-08T10:17:19.323Z,10.7
2022-12-08T10:19:49.670Z,10.7
2022-12-08T10:22:20.721Z,10.7
2022-12-08T10:24:51.403Z,10.8
2022-12-08T10:27:21.788Z,10.7
2022-12-08T10:29:52.892Z,10.7
2022-12-08T10:32:23.968Z,10.7
2022-12-08T10:34:56.374Z,10.7
2022-12-08T10:37:24.398Z,10.7
2022-12-08T10:39:55.205Z,10.7
2022-12-08T10:42:26.152Z,10.6
2022-12-08T10:44:56.907Z,10.7
2022-12-08T10:47:27.636Z,10.6
2022-12-08T10:49:58.118Z,10.6
2022-12-08T10:52:29.142Z,10.5
2022-12-08T10:55:00.108Z,10.6
2022-12-08T10:57:30.793Z,10.5
2022-12-08T11:00:02.223Z,10.5
2022-12-08T11:02:32.823Z,10.5
2022-12-08T11:05:04.454Z,10.6
2022-12-08T11:07:34.982Z,10.7
2022-12-08T11:10:05.786Z,10.7
2022-12-08T11:12:35.930Z,10.5
2022-12-08T11:15:06.775Z,10.6
2022-12-08T11:17:37.353Z,10.6
2022-12-08T11:20:08.626Z,10.5
2022-12-08T11:22:39.103Z,10.5
2022-12-08T11:25:09.790Z,10.4
2022-12-08T11:27:41.175Z,10.6
2022-12-08T11:30:14.406Z,10.6
2022-12-08T11:32:42.567Z,10.5
2022-12-08T11:35:13.980Z,10.6
2022-12-08T11:37:44.668Z,10.6
2022-12-08T11:40:16.361Z,10.6
2022-12-08T11:42:47.569Z,10.6
2022-12-08T11:45:19.125Z,10.6
2022-12-08T11:47:54.205Z,10.6
2022-12-08T11:50:21.963Z,10.7
2022-12-08T11:52:52.843Z,10.7
2022-12-08T11:55:24.721Z,10.7
2022-12-08T11:57:55.365Z,10.8
2022-12-08T12:00:27.420Z,10.8
2022-12-08T12:02:58.890Z,11
2022-12-08T12:05:56.920Z,10.9
2022-12-08T12:08:01.254Z,10.9
2022-12-08T12:10:32.172Z,11
2022-12-08T12:13:03.311Z,10.9
2022-12-08T12:15:32.802Z,11
2022-12-08T12:18:03.352Z,11
2022-12-08T12:20:34.895Z,10.9
2022-12-08T12:23:06.137Z,11
2022-12-08T12:25:37.214Z,11
2022-12-08T12:28:07.857Z,11
2022-12-08T12:30:39.197Z,11.1
2022-12-08T12:33:09.687Z,11.1
2022-12-08T12:35:40.743Z,11.1
2022-12-08T12:38:11.806Z,11.2
2022-12-08T12:40:42.744Z,11.2
2022-12-08T12:43:13.603Z,11.2
2022-12-08T12:45:44.959Z,11.1
2022-12-08T12:48:15.769Z,11.1
2022-12-08T12:50:47.412Z,11.1
2022-12-08T12:53:17.899Z,11.2
2022-12-08T12:55:49.594Z,11.1
2022-12-08T12:58:20.558Z,11
2022-12-08T13:00:51.618Z,11
2022-12-08T13:03:22.299Z,11
2022-12-08T13:05:53.478Z,11
2022-12-08T13:08:24.072Z,11
2022-12-08T13:10:54.844Z,11
2022-12-08T13:13:25.788Z,11
2022-12-08T13:15:55.189Z,11
2022-12-08T13:18:26.386Z,10.9
2022-12-08T13:20:57.685Z,10.9
2022-12-08T13:23:28.193Z,10.9
2022-12-08T13:25:59.349Z,11
2022-12-08T13:28:30.036Z,11
2022-12-08T13:31:02.443Z,10.9
2022-12-08T13:33:33.194Z,10.9
2022-12-08T13:36:04.209Z,10.9
2022-12-08T13:38:35.562Z,10.9
2022-12-08T13:41:06.857Z,11
2022-12-08T13:43:47.676Z,11
2022-12-08T13:49:52.985Z,10.9
2022-12-08T13:54:42.822Z,10.9
2022-12-08T13:58:45.495Z,10.7
2022-12-08T14:01:16.799Z,10.7
2022-12-08T14:04:12.692Z,10.8
2022-12-08T14:06:20.162Z,10.8
2022-12-08T14:09:00.293Z,10.8
2022-12-08T14:11:23.339Z,10.7
2022-12-08T14:13:54.662Z,10.7
2022-12-08T14:16:26.484Z,10.6
2022-12-08T14:18:56.342Z,10.6
2022-12-08T14:21:31.336Z,10.6
2022-12-08T14:24:02.407Z,10.6
2022-12-08T14:26:33.678Z,10.6
2022-12-08T14:29:05.584Z,10.7
2022-12-08T14:31:36.741Z,10.8
2022-12-08T14:34:07.961Z,10.8
2022-12-08T14:36:39.076Z,10.9
2022-12-08T14:39:10.097Z,10.9
2022-12-08T14:41:41.554Z,10.9
2022-12-08T14:44:13.049Z,11
2022-12-08T14:46:44.875Z,10.9
2022-12-08T14:49:14.941Z,11
2022-12-08T14:51:46.631Z,11
2022-12-08T14:54:17.956Z,11
2022-12-08T14:56:49.191Z,10.9
2022-12-08T14:59:20.531Z,10.9
2022-12-08T15:01:51.930Z,10.9
2022-12-08T15:04:23.689Z,10.8
2022-12-08T15:06:54.747Z,10.8
2022-12-08T15:09:25.861Z,10.9
2022-12-08T15:11:57.083Z,10.9
2022-12-08T15:14:27.933Z,10.8
2022-12-08T15:16:59.519Z,10.8
2022-12-08T15:19:32.975Z,10.7
2022-12-08T15:22:09.822Z,10.7
2022-12-08T15:24:42.810Z,10.8
2022-12-08T15:27:12.065Z,10.9
2022-12-08T15:29:43.017Z,10.8
2022-12-08T15:32:14.467Z,10.8
2022-12-08T15:34:45.537Z,10.8
2022-12-08T15:37:16.778Z,10.8
2022-12-08T15:39:48.283Z,10.8
2022-12-08T15:42:19.407Z,10.9
2022-12-08T15:44:50.574Z,11
2022-12-08T15:47:21.686Z,11
2022-12-08T15:49:53.096Z,11
2022-12-08T15:52:24.131Z,11
2022-12-08T15:54:55.601Z,11
2022-12-08T15:58:04.386Z,11.1
2022-12-08T15:59:58.016Z,11.1
2022-12-08T16:02:43.072Z,11
2022-12-08T16:05:33.735Z,11.1
2022-12-08T16:07:32.495Z,11.1
2022-12-08T16:10:04.783Z,11.1
2022-12-08T16:13:13.798Z,11.1
2022-12-08T16:17:38.339Z,11.1
2022-12-08T16:20:09.870Z,11.1
2022-12-08T16:25:19.101Z,11.1
2022-12-08T16:28:00.591Z,11.1
2022-12-08T16:30:19.603Z,11.2
2022-12-08T16:32:51.264Z,11.2
2022-12-08T16:35:22.786Z,11.1
2022-12-08T16:37:53.961Z,11.2
2022-12-08T16:40:25.108Z,11.2
2022-12-08T16:42:56.017Z,11.2
2022-12-08T16:45:26.943Z,11.2
2022-12-08T16:47:58.136Z,11.3
2022-12-08T16:50:30.356Z,11.3
2022-12-08T16:53:01.821Z,11.3
2022-12-08T16:55:32.884Z,11.3
2022-12-08T16:58:04.737Z,11.2
2022-12-08T17:00:36.109Z,11.2
2022-12-08T17:03:08.459Z,11.2
2022-12-08T17:05:39.659Z,11.2
2022-12-08T17:08:10.614Z,11.2
2022-12-08T17:10:41.342Z,11.2
2022-12-08T17:13:14.793Z,11.1
2022-12-08T17:15:46.007Z,11.1
2022-12-08T17:18:16.912Z,11.1
2022-12-08T17:20:48.348Z,11
2022-12-08T17:23:19.393Z,10.9
2022-12-08T17:25:51.001Z,10.9
2022-12-08T17:28:37.266Z,10.8
2022-12-08T17:30:53.585Z,10.7
2022-12-08T17:33:26.808Z,10.7
2022-12-08T17:35:56.061Z,10.7
2022-12-08T17:38:27.152Z,10.6
2022-12-08T17:40:59.012Z,10.6
2022-12-08T17:43:31.327Z,10.6
2022-12-08T17:46:02.760Z,10.5
2022-12-08T17:48:34.146Z,10.5
2022-12-08T17:51:05.664Z,10.4
2022-12-08T17:53:37.707Z,10.3
2022-12-08T17:56:08.461Z,10.3
2022-12-08T17:58:39.373Z,10.4
2022-12-08T18:01:10.590Z,10.2
2022-12-08T18:03:40.631Z,10.2
2022-12-08T18:06:11.619Z,10.1
2022-12-08T18:08:43.092Z,10.1
2022-12-08T18:11:15.414Z,10.2
2022-12-08T18:13:47.022Z,10.2
2022-12-08T18:16:18.480Z,10.1
2022-12-08T18:18:49.344Z,10.1
2022-12-08T18:21:23.479Z,10.1
2022-12-08T18:23:51.984Z,10.1
2022-12-08T18:26:23.568Z,10.1
2022-12-08T18:28:54.592Z,10.1
2022-12-08T18:31:25.524Z,10.1
2022-12-08T18:33:56.365Z,10
2022-12-08T18:36:27.760Z,10
2022-12-08T18:38:59.661Z,10.1
2022-12-08T18:41:30.665Z,10
2022-12-08T18:44:02.143Z,9.9
2022-12-08T18:46:33.857Z,9.9
2022-12-08T18:49:05.306Z,9.9
2022-12-08T18:51:36.773Z,9.8
2022-12-08T18:54:07.758Z,9.8
2022-12-08T18:56:38.928Z,9.8
2022-12-08T18:59:10.367Z,9.8
2022-12-08T19:01:42.977Z,9.8
2022-12-08T19:04:30.273Z,9.8
2022-12-08T19:06:45.664Z,9.8
2022-12-08T19:09:16.830Z,9.8
2022-12-08T19:11:46.952Z,9.8
2022-12-08T19:14:21.319Z,9.8
2022-12-08T19:16:48.992Z,9.9
2022-12-08T19:19:20.432Z,9.9
2022-12-08T19:21:51.843Z,9.8
2022-12-08T19:24:23.156Z,9.9
2022-12-08T19:26:54.280Z,9.8
2022-12-08T19:29:25.740Z,9.8
2022-12-08T19:31:55.342Z,9.8
2022-12-08T19:34:26.760Z,9.7
2022-12-08T19:36:56.273Z,9.7
2022-12-08T19:39:27.657Z,9.7
2022-12-08T19:42:00.453Z,9.7
2022-12-08T19:44:31.848Z,9.6
2022-12-08T19:47:02.998Z,9.5
2022-12-08T19:49:34.114Z,9.5
2022-12-08T19:52:08.528Z,9.4
2022-12-08T19:54:39.868Z,9.4
2022-12-08T19:57:10.952Z,9.4
2022-12-08T19:59:41.846Z,9.4
2022-12-08T20:02:12.937Z,9.4
2022-12-08T20:04:45.376Z,9.4
2022-12-08T20:07:16.434Z,9.4
2022-12-08T20:09:47.353Z,9.3
2022-12-08T20:12:18.417Z,9.3
2022-12-08T20:14:49.501Z,9.3
2022-12-08T20:17:22.074Z,9.3
2022-12-08T20:19:53.344Z,9.3
2022-12-08T20:22:27.738Z,9.3
2022-12-08T20:25:04.240Z,9.2
2022-12-08T20:27:35.266Z,9.2
2022-12-08T20:30:08.585Z,9.3
2022-12-08T20:32:38.085Z,9.3
2022-12-08T20:35:10.192Z,9.3
2022-12-08T20:37:41.525Z,9.3
2022-12-08T20:40:12.683Z,9.2
2022-12-08T20:42:45.008Z,9.1
2022-12-08T20:45:16.032Z,9.1
2022-12-08T20:47:47.604Z,9.1
2022-12-08T20:50:19.014Z,9
2022-12-08T20:52:50.379Z,9
2022-12-08T20:55:21.519Z,8.9
2022-12-08T20:57:52.378Z,8.9
2022-12-08T21:00:24.073Z,8.7
2022-12-08T21:02:56.927Z,8.8
2022-12-08T21:05:30.070Z,8.8
2022-12-08T21:08:01.499Z,8.8
2022-12-08T21:10:32.827Z,8.7
2022-12-08T21:13:04.374Z,8.7
2022-12-08T21:15:35.870Z,8.7
2022-12-08T21:18:06.941Z,8.8
2022-12-08T21:20:36.750Z,8.8
2022-12-08T21:23:08.730Z,8.9
2022-12-08T21:25:39.751Z,9
2022-12-08T21:28:12.062Z,9
2022-12-08T21:30:43.844Z,9
2022-12-08T21:33:15.044Z,9
2022-12-08T21:35:46.243Z,8.9
2022-12-08T21:38:18.137Z,8.9
2022-12-08T21:40:48.579Z,9
2022-12-08T21:43:19.810Z,9
2022-12-08T21:45:50.905Z,8.8
2022-12-08T21:48:25.317Z,8.9
2022-12-08T21:50:56.812Z,8.9
2022-12-08T21:53:28.098Z,8.9
2022-12-08T21:55:59.494Z,8.9
2022-12-08T21:58:33.846Z,8.8
2022-12-08T22:01:05.104Z,8.7
2022-12-08T22:03:35.982Z,8.7
2022-12-08T22:06:06.811Z,8.7
2022-12-08T22:08:38.376Z,8.7
2022-12-08T22:11:09.676Z,8.7
2022-12-08T22:13:41.258Z,8.8
2022-12-08T22:16:13.982Z,8.8
2022-12-08T22:18:48.142Z,8.8
2022-12-08T22:21:19.158Z,8.7
2022-12-08T22:23:50.133Z,8.8
2022-12-08T22:26:21.152Z,8.8
2022-12-08T22:28:53.469Z,8.8
2022-12-08T22:31:27.809Z,8.9
2022-12-08T22:33:59.168Z,8.9
2022-12-08T22:36:30.497Z,8.9
2022-12-08T22:39:01.336Z,8.9
2022-12-08T22:41:32.446Z,8.9
2022-12-08T22:44:04.963Z,8.9
2022-12-08T22:46:37.168Z,8.8
2022-12-08T22:49:08.543Z,8.9
2022-12-08T22:51:38.695Z,8.9
2022-12-08T22:54:09.586Z,8.9
2022-12-08T22:56:41.037Z,8.9
2022-12-08T22:59:12.301Z,9
2022-12-08T23:01:43.899Z,9
2022-12-08T23:04:17.856Z,9
2022-12-08T23:06:46.720Z,9
2022-12-08T23:09:18.022Z,9.1
2022-12-08T23:11:49.273Z,9.1
2022-12-08T23:14:20.749Z,9.1
2022-12-08T23:16:53.376Z,9.1
2022-12-08T23:19:24.428Z,9.2
2022-12-08T23:21:55.710Z,9.3
2022-12-08T23:24:26.348Z,9.3
2022-12-08T23:26:57.079Z,9.4
2022-12-08T23:29:27.773Z,9.3
2022-12-08T23:31:56.914Z,9.4
2022-12-08T23:34:29.676Z,9.3
2022-12-08T23:37:01.285Z,9.3
2022-12-08T23:39:31.547Z,9.3
2022-12-08T23:42:02.512Z,9.2
2022-12-08T23:44:33.920Z,9.2
2022-12-08T23:47:05.642Z,9.2
2022-12-08T23:49:35.948Z,9.2
2022-12-08T23:52:06.780Z,9.2
2022-12-08T23:54:36.945Z,9.2
2022-12-08T23:57:07.832Z,9.2
2022-12-08T23:59:38.707Z,9.2
